Greeley, IA (52050)

1:57 PM CDT on July 30, 2014 (GMT -0500)
KIASTRAW2 Elev 1220 ft | 42.68 °N, 91.53 °W | Change Station

Current weather conditions updated 4 minutes ago

Mostly Cloudy
Mostly Cloudy
75.1 °F
Feels Like 78 °F
N
5.0
Wind Variable Wind from WNW
Gusts 6.0 mph

Today is forecast to be nearly the same temperature as yesterday. A few thunderstorms possible.

Today
High -- | Low -- °F
--% Chance of Precip.
Yesterday
High -- | Low -- °F
Precip. -- in
5:55 AM 8:27 PM
Waxing Crescent, 13% visible
Pressure 30.06 in
Visibility 10.0 miles
Clouds Mostly Cloudy 4500 ft
Mostly Cloudy 5500 ft
Mostly Cloudy 8000 ft
Heat Index 78 °F
Dew Point 58 °F
Humidity 56%
Rainfall -999.00 in
Snow Depth Not available.
UV 6 out of 12
Pollen 6.40 out of 12
Air Quality Not available.
Flu Activity Not available.
METAR KMXO 301835Z AUTO 32007KT 10SM BKN045 BKN055 BKN080 24/15 A3006 RMK AO2

More Conditions Fewer Conditions

Pressure 30.06 in
Visibility 10.0 miles
Clouds Mostly Cloudy 4500 ft
Mostly Cloudy 5500 ft
Mostly Cloudy 8000 ft
Heat Index 78 °F
Dew Point 58 °F
Humidity 56%
Rainfall -999.00 in
Snow Depth Not available.
UV 6 out of 12
Pollen 6.40 out of 12
Air Quality Not available.
Flu Activity Not available.
METAR KMXO 301835Z AUTO 32007KT 10SM BKN045 BKN055 BKN080 24/15 A3006 RMK AO2

More Conditions Fewer Conditions

10-Day Weather Forecast

Almanac

Astronomy

Jul. 30, 2014 Rise Set
Actual Time 5:55 AM CDT 8:27 PM CDT
Civil Twilight 5:22 AM CDT 8:59 PM CDT
Nautical Twilight 4:42 AM CDT 9:39 PM CDT
Astronomical Twilight 3:57 AM CDT 10:24 PM CDT
Moon 9:32 AM CDT 10:03 PM CDT
Length of Visible Light 15h 36m
Length of Day
14h 32m
Tomorrow will be 2m 9s shorter.
Waxing Crescent, 13% of the Moon is Illuminated
Today
Waxing Crescent
Aug 3
First Quarter
Aug 10
Full
Aug 17
Last Quarter
Aug 25
New

Today's Extremes

State Highs State Lows

Community

WunderPhotos

Upload Photos

1,739,152 photos uploaded!

WunderBlogs® & News

Nearby

Snow Depth

Station Depth Elevation
No new snow has been reported.

Earthquake Activity

City Distance Mag. Time & Date
No recent earthquake activity has been reported nearby.
Minimum magnitude displayed is 2.5.

Coastal Water Temperatures

Place Temperature
No Stations Reporting

Nearby Weather Stations

Station Location Temp. Heat Index Dew Point Humidity Wind Precip. Elev Updated Type
Strawberry Point, IA 75.1 °F 78 °F 58 °F 56% WNW  at  5.0 mph 0.00 in / hr 1220 ft 1:53 PM CDT Normal
South Lake, Farley, IA 76.9 °F 79 °F 60 °F 56% NNW  at  3.0 mph 0.00 in / hr 1083 ft 1:57 PM CDT Rapid Fire
Jim Greif Farm.1 mile north of, Priarieburg, IA 75.8 °F 78 °F 62 °F 62% NE  at  7.0 mph 0.00 in / hr 958 ft 1:57 PM CDT Normal

Show More Stations Show Fewer Stations